Time;durP1;ratioP1;P1;durP2;ratioP2;P2;SDS_P1;SDS_P2;PMS_P1;PMS_P2;Temp;Humidity;BMP_temperature;BMP_pressure;BME280_temperature;BME280_humidity;BME280_pressure;Samples;Min_cycle;Max_cycle;Signal;HPM_P1;HPM_P2
2023/12/18 00:01:29;;;;;;;10.40;1.98;;;10.50;99.90;;;;;;4951039;29;20034;-90
2023/12/18 00:03:54;;;;;;;19.30;2.05;;;10.50;99.90;;;;;;4941946;29;20039;-91
2023/12/18 00:06:20;;;;;;;6.95;1.80;;;10.50;99.90;;;;;;4941729;29;20028;-90
2023/12/18 00:08:46;;;;;;;15.43;2.97;;;10.60;99.90;;;;;;4952782;29;20153;-90
2023/12/18 00:11:13;;;;;;;8.23;1.63;;;10.60;99.90;;;;;;4942733;29;20034;-89
2023/12/18 00:13:39;;;;;;;8.65;2.00;;;10.60;99.90;;;;;;4950946;28;20083;-92
2023/12/18 00:16:06;;;;;;;11.02;1.90;;;10.70;99.90;;;;;;4956237;28;20047;-91
2023/12/18 00:18:32;;;;;;;13.40;2.10;;;10.70;99.90;;;;;;4940572;29;20425;-90
2023/12/18 00:20:57;;;;;;;12.25;1.95;;;10.80;99.90;;;;;;4941238;29;20055;-89
2023/12/18 00:23:23;;;;;;;13.80;2.65;;;10.80;99.90;;;;;;4947777;29;20097;-90
2023/12/18 00:25:49;;;;;;;8.18;1.55;;;10.90;99.90;;;;;;4958688;29;20031;-89
2023/12/18 00:28:15;;;;;;;15.13;2.50;;;10.90;99.90;;;;;;4941276;29;20023;-91
2023/12/18 00:30:41;;;;;;;12.20;1.90;;;11.00;99.90;;;;;;4941283;29;20374;-89
2023/12/18 00:33:07;;;;;;;14.57;1.80;;;11.10;99.90;;;;;;4941377;29;20031;-89
2023/12/18 00:35:32;;;;;;;13.65;2.55;;;11.10;99.90;;;;;;4946100;29;20028;-90
2023/12/18 00:37:58;;;;;;;10.73;2.10;;;11.20;99.90;;;;;;4959229;29;20041;-90
2023/12/18 00:40:24;;;;;;;9.50;1.88;;;11.20;99.90;;;;;;4942423;29;20362;-89
2023/12/18 00:42:49;;;;;;;10.48;1.50;;;11.20;99.90;;;;;;4959964;29;20110;-89
2023/12/18 00:45:16;;;;;;;11.48;1.60;;;11.30;99.90;;;;;;4943326;29;20121;-90
2023/12/18 00:47:42;;;;;;;14.00;2.15;;;11.30;99.90;;;;;;4944852;29;20031;-89
2023/12/18 00:50:09;;;;;;;12.93;2.42;;;11.30;99.90;;;;;;4943964;29;20027;-89
2023/12/18 00:52:36;;;;;;;11.35;2.10;;;11.30;99.90;;;;;;4971944;28;20067;-90
2023/12/18 00:55:02;;;;;;;7.95;1.70;;;11.40;99.90;;;;;;4963968;29;20094;-88
2023/12/18 00:57:28;;;;;;;8.15;1.95;;;11.40;99.90;;;;;;4961000;29;20058;-89
2023/12/18 00:59:54;;;;;;;15.00;2.05;;;11.30;99.90;;;;;;4941405;29;20109;-91
2023/12/18 01:02:19;;;;;;;14.00;2.65;;;11.30;99.90;;;;;;4939691;29;20035;-89
2023/12/18 01:04:45;;;;;;;13.13;2.33;;;11.30;99.90;;;;;;4957647;29;20027;-90
2023/12/18 01:07:11;;;;;;;10.90;2.10;;;11.20;99.90;;;;;;4940697;29;20162;-90
2023/12/18 01:09:37;;;;;;;10.85;2.05;;;11.20;99.90;;;;;;4941052;29;20481;-90
2023/12/18 01:12:05;;;;;;;17.95;2.20;;;11.20;99.90;;;;;;4940275;29;20046;-89
2023/12/18 01:14:33;;;;;;;11.13;1.50;;;11.20;99.90;;;;;;4957318;29;20078;-90
2023/12/18 01:16:58;;;;;;;7.40;1.83;;;11.10;99.90;;;;;;4940259;29;20118;-88
2023/12/18 01:19:24;;;;;;;12.18;1.98;;;11.10;99.90;;;;;;4957151;29;20058;-91
2023/12/18 01:21:53;;;;;;;11.07;1.63;;;11.10;99.90;;;;;;4957363;29;20382;-90
2023/12/18 01:24:19;;;;;;;18.80;2.20;;;11.10;99.90;;;;;;4940835;29;20134;-90
2023/12/18 01:26:44;;;;;;;9.82;2.45;;;11.00;99.90;;;;;;4940351;29;20481;-88
2023/12/18 01:29:13;;;;;;;8.90;2.03;;;11.00;99.90;;;;;;4940461;29;20114;-91
2023/12/18 01:31:39;;;;;;;10.52;1.50;;;11.00;99.90;;;;;;4940702;29;20023;-91
2023/12/18 01:34:04;;;;;;;9.73;2.80;;;11.00;99.90;;;;;;4941252;29;20105;-89
2023/12/18 01:36:30;;;;;;;11.25;2.10;;;11.00;99.90;;;;;;4944903;29;20031;-89
2023/12/18 01:38:56;;;;;;;10.00;1.92;;;10.90;99.90;;;;;;4945597;29;20031;-89
2023/12/18 01:41:22;;;;;;;11.93;2.03;;;11.00;99.90;;;;;;4961582;29;20040;-89
2023/12/18 01:43:47;;;;;;;13.45;2.17;;;10.90;99.90;;;;;;4961506;29;20033;-91
2023/12/18 01:46:19;;;;;;;8.45;2.25;;;10.90;99.90;;;;;;4961857;29;20303;-89
2023/12/18 01:48:45;;;;;;;12.27;1.85;;;10.90;99.90;;;;;;4941987;29;20090;-90
2023/12/18 01:51:12;;;;;;;12.18;1.95;;;10.90;99.90;;;;;;4956270;28;20081;-90
2023/12/18 01:53:42;;;;;;;10.30;2.08;;;10.90;99.90;;;;;;4940568;29;20033;-90
2023/12/18 01:56:09;;;;;;;17.45;2.22;;;11.00;99.90;;;;;;4958014;29;20031;-90
2023/12/18 01:58:37;;;;;;;6.95;1.33;;;11.00;99.90;;;;;;4971942;29;20034;-92
2023/12/18 02:01:03;;;;;;;12.82;2.30;;;11.00;99.90;;;;;;4961622;29;20007;-90
2023/12/18 02:03:30;;;;;;;9.48;2.83;;;11.00;99.90;;;;;;4957551;29;20031;-90
2023/12/18 02:05:59;;;;;;;10.23;1.88;;;10.90;99.90;;;;;;4939202;29;20023;-89
2023/12/18 02:08:25;;;;;;;10.32;1.88;;;10.90;99.90;;;;;;4955374;29;20144;-90
2023/12/18 02:10:55;;;;;;;9.07;1.92;;;10.90;99.90;;;;;;4940169;29;20042;-90
2023/12/18 02:13:21;;;;;;;21.45;2.42;;;10.90;99.90;;;;;;4947481;28;20054;-90
2023/12/18 02:15:47;;;;;;;15.85;2.10;;;10.80;99.90;;;;;;4938048;29;20023;-90
2023/12/18 02:18:13;;;;;;;22.80;2.60;;;10.80;99.90;;;;;;4939591;29;20536;-91
2023/12/18 02:20:42;;;;;;;10.02;1.85;;;10.80;99.90;;;;;;4955949;29;20501;-90
2023/12/18 02:23:09;;;;;;;9.32;2.15;;;10.80;99.90;;;;;;4956104;29;20031;-90
2023/12/18 02:25:34;;;;;;;13.68;2.05;;;10.80;99.90;;;;;;4954543;29;20034;-91
2023/12/18 02:28:04;;;;;;;10.18;1.95;;;10.80;99.90;;;;;;4946815;29;20028;-91
2023/12/18 02:30:32;;;;;;;13.93;2.07;;;10.70;99.90;;;;;;4954748;29;20023;-89
2023/12/18 02:32:57;;;;;;;9.80;2.17;;;10.70;99.90;;;;;;4956560;29;20369;-90
2023/12/18 02:35:24;;;;;;;15.27;2.22;;;10.70;99.90;;;;;;4956286;29;20051;-91
2023/12/18 02:37:50;;;;;;;9.82;1.88;;;10.70;99.90;;;;;;4935855;29;20024;-90
2023/12/18 02:40:16;;;;;;;9.77;1.92;;;10.70;99.90;;;;;;4942405;29;20019;-90
2023/12/18 02:42:42;;;;;;;10.85;1.92;;;10.70;99.90;;;;;;4935782;29;20383;-90
2023/12/18 02:45:08;;;;;;;9.93;1.67;;;10.70;99.90;;;;;;4945589;29;20037;-92
2023/12/18 02:47:34;;;;;;;14.23;2.40;;;10.70;99.90;;;;;;4955951;29;20035;-90
2023/12/18 02:50:00;;;;;;;8.23;1.67;;;10.70;99.90;;;;;;4938695;29;20114;-90
2023/12/18 02:52:25;;;;;;;18.83;2.15;;;10.70;99.90;;;;;;4955587;28;20504;-90
2023/12/18 02:54:51;;;;;;;13.43;2.00;;;10.70;99.90;;;;;;4955495;29;20039;-90
2023/12/18 02:57:17;;;;;;;11.50;1.90;;;10.70;99.90;;;;;;4955868;29;20107;-90
2023/12/18 02:59:42;;;;;;;16.08;2.13;;;10.70;99.90;;;;;;4938617;29;20027;-89
2023/12/18 03:02:08;;;;;;;11.73;2.10;;;10.70;99.90;;;;;;4955981;29;20519;-90
2023/12/18 03:04:37;;;;;;;12.27;2.28;;;10.70;99.90;;;;;;4938475;29;20027;-90
2023/12/18 03:07:03;;;;;;;8.57;2.13;;;10.70;99.90;;;;;;4938421;29;20608;-90
2023/12/18 03:09:29;;;;;;;15.73;2.45;;;10.70;99.90;;;;;;4955879;29;20043;-91
2023/12/18 03:11:54;;;;;;;10.05;2.15;;;10.70;99.90;;;;;;4955283;29;20461;-90
2023/12/18 03:14:20;;;;;;;15.45;1.92;;;10.70;99.90;;;;;;4955443;29;20054;-90
2023/12/18 03:16:46;;;;;;;10.60;2.20;;;10.70;99.90;;;;;;4938312;29;20035;-91
2023/12/18 03:19:11;;;;;;;15.27;1.90;;;10.70;99.90;;;;;;4954351;29;20024;-92
2023/12/18 03:21:37;;;;;;;19.75;2.20;;;10.70;99.90;;;;;;4955289;29;20042;-89
2023/12/18 03:24:04;;;;;;;11.27;1.80;;;10.70;99.90;;;;;;4956895;29;20376;-90
2023/12/18 03:26:30;;;;;;;16.83;2.92;;;10.60;99.90;;;;;;4960500;28;20019;-95
2023/12/18 03:28:56;;;;;;;9.80;1.80;;;10.70;99.90;;;;;;4983819;28;20024;-91
2023/12/18 03:31:21;;;;;;;11.45;2.17;;;10.60;99.90;;;;;;4969161;28;20382;-92
2023/12/18 03:33:47;;;;;;;10.40;2.10;;;10.60;99.90;;;;;;4944724;29;20071;-91
2023/12/18 03:36:13;;;;;;;15.63;2.90;;;10.60;99.90;;;;;;4944831;29;20031;-90
2023/12/18 03:38:38;;;;;;;8.73;1.70;;;10.60;99.90;;;;;;4943498;29;20480;-90
2023/12/18 03:41:05;;;;;;;7.78;2.15;;;10.60;99.90;;;;;;4945209;29;20248;-90
2023/12/18 03:43:30;;;;;;;12.20;1.88;;;10.60;99.90;;;;;;4962611;29;20023;-90
2023/12/18 03:45:56;;;;;;;18.75;2.60;;;10.60;99.90;;;;;;4966201;28;20092;-89
2023/12/18 03:48:22;;;;;;;16.15;2.75;;;10.60;99.90;;;;;;4947317;29;20025;-90
2023/12/18 03:50:47;;;;;;;10.73;1.95;;;10.70;99.90;;;;;;4944962;28;20047;-91
2023/12/18 03:53:13;;;;;;;13.50;2.35;;;10.60;99.90;;;;;;4944807;29;20484;-90
2023/12/18 03:55:39;;;;;;;9.07;1.67;;;10.60;99.90;;;;;;4959829;29;20380;-90
2023/12/18 03:58:05;;;;;;;16.10;2.45;;;10.60;99.90;;;;;;4961421;29;20059;-90
2023/12/18 04:00:31;;;;;;;14.30;1.80;;;10.60;99.90;;;;;;4944046;29;20035;-89
2023/12/18 04:02:57;;;;;;;9.35;1.90;;;10.60;99.90;;;;;;4943941;29;20142;-90
2023/12/18 04:05:26;;;;;;;9.88;1.45;;;10.60;99.90;;;;;;4943547;29;20019;-90
2023/12/18 04:07:52;;;;;;;14.32;1.90;;;10.60;99.90;;;;;;4961259;28;20057;-89
2023/12/18 04:10:17;;;;;;;8.75;2.30;;;10.60;99.90;;;;;;4961045;28;20426;-90
2023/12/18 04:12:46;;;;;;;12.80;1.80;;;10.60;99.90;;;;;;4960037;29;20078;-89
2023/12/18 04:15:12;;;;;;;9.68;1.60;;;10.60;99.90;;;;;;4944328;29;20027;-89
2023/12/18 04:17:37;;;;;;;17.23;2.08;;;10.60;99.90;;;;;;4961995;29;20042;-89
2023/12/18 04:20:04;;;;;;;11.02;2.10;;;10.60;99.90;;;;;;4961545;29;20027;-90
2023/12/18 04:22:30;;;;;;;10.27;2.03;;;10.60;99.90;;;;;;4961447;29;20093;-90
2023/12/18 04:24:56;;;;;;;11.27;1.48;;;10.60;99.90;;;;;;4944285;28;20031;-90
2023/12/18 04:27:22;;;;;;;11.05;1.65;;;10.60;99.90;;;;;;4944115;29;20027;-89
2023/12/18 04:29:48;;;;;;;11.13;1.90;;;10.60;99.90;;;;;;4960944;29;20031;-90
2023/12/18 04:32:14;;;;;;;9.65;1.85;;;10.60;99.90;;;;;;4961349;28;20128;-89
2023/12/18 04:34:39;;;;;;;11.38;1.83;;;10.60;99.90;;;;;;4960221;29;20027;-90
2023/12/18 04:37:06;;;;;;;8.13;1.77;;;10.60;99.90;;;;;;4941607;29;20027;-90
2023/12/18 04:39:37;;;;;;;5.75;1.60;;;10.60;99.90;;;;;;4941110;29;20317;-90
2023/12/18 04:42:03;;;;;;;12.20;1.60;;;10.60;99.90;;;;;;4957670;29;20039;-90
2023/12/18 04:44:29;;;;;;;11.48;1.67;;;10.60;99.90;;;;;;4940452;29;20023;-91
2023/12/18 04:46:55;;;;;;;15.40;2.50;;;10.60;99.90;;;;;;4957579;29;20481;-90
2023/12/18 04:49:21;;;;;;;4.85;1.17;;;10.60;99.90;;;;;;4941051;29;20110;-90
2023/12/18 04:51:47;;;;;;;5.93;2.00;;;10.60;99.90;;;;;;4936679;29;20047;-90
2023/12/18 04:54:13;;;;;;;9.52;1.55;;;10.60;99.90;;;;;;4937270;29;20067;-90
2023/12/18 04:56:39;;;;;;;7.20;1.25;;;10.60;99.90;;;;;;4937551;29;20062;-90
2023/12/18 04:59:05;;;;;;;6.75;1.30;;;10.60;99.90;;;;;;4936761;29;20466;-89
2023/12/18 05:01:31;;;;;;;8.55;1.30;;;10.60;99.90;;;;;;4920888;29;20544;-89
2023/12/18 05:03:57;;;;;;;9.50;1.45;;;10.60;99.90;;;;;;4939651;29;20043;-89
2023/12/18 05:06:25;;;;;;;6.28;1.33;;;10.60;99.90;;;;;;4941202;29;20031;-89
2023/12/18 05:08:51;;;;;;;12.80;1.67;;;10.60;99.90;;;;;;4940660;29;20115;-89
2023/12/18 05:11:22;;;;;;;4.55;1.20;;;10.60;99.90;;;;;;4939735;29;20019;-89
2023/12/18 05:13:48;;;;;;;4.50;0.88;;;10.70;99.90;;;;;;4921416;29;20023;-89
2023/12/18 05:16:15;;;;;;;5.75;1.10;;;10.60;99.90;;;;;;4936339;29;20471;-89
2023/12/18 05:18:42;;;;;;;4.93;0.70;;;10.60;99.90;;;;;;4920897;29;20442;-90
2023/12/18 05:21:12;;;;;;;6.53;1.25;;;10.60;99.90;;;;;;4921326;29;20035;-89
2023/12/18 05:23:39;;;;;;;7.35;1.02;;;10.60;99.90;;;;;;4938221;29;20036;-89
2023/12/18 05:26:05;;;;;;;3.67;0.90;;;10.70;99.90;;;;;;4937898;29;20042;-89
2023/12/18 05:28:31;;;;;;;7.55;1.23;;;10.60;99.90;;;;;;4937491;29;20028;-88
2023/12/18 05:30:57;;;;;;;6.53;0.95;;;10.70;99.90;;;;;;4938423;29;20080;-89
2023/12/18 05:33:23;;;;;;;5.05;0.70;;;10.70;99.90;;;;;;4932012;29;20027;-86
2023/12/18 05:35:49;;;;;;;1.70;0.73;;;10.70;99.90;;;;;;4951089;29;20051;-90
2023/12/18 05:38:14;;;;;;;3.22;0.85;;;10.70;99.90;;;;;;4936643;29;20063;-89
2023/12/18 05:40:43;;;;;;;3.03;0.80;;;10.70;99.90;;;;;;4936154;29;20027;-88
2023/12/18 05:43:09;;;;;;;4.78;0.73;;;10.70;99.90;;;;;;4920565;29;20034;-88
2023/12/18 05:45:35;;;;;;;5.00;0.88;;;10.70;99.90;;;;;;4936595;29;20489;-89
2023/12/18 05:48:00;;;;;;;2.55;0.63;;;10.80;99.90;;;;;;4936255;29;20024;-89
2023/12/18 05:50:27;;;;;;;3.88;0.98;;;10.80;99.90;;;;;;4919888;29;20026;-90
2023/12/18 05:52:53;;;;;;;3.08;0.70;;;10.80;99.90;;;;;;4936016;29;20421;-90
2023/12/18 05:55:18;;;;;;;1.80;1.15;;;10.80;99.90;;;;;;4936952;29;20111;-90
2023/12/18 05:57:44;;;;;;;2.30;0.77;;;10.80;99.90;;;;;;4938925;29;20111;-90
2023/12/18 06:00:10;;;;;;;2.88;0.90;;;10.80;99.90;;;;;;4938474;29;20099;-88
2023/12/18 06:02:36;;;;;;;2.60;0.70;;;10.80;99.90;;;;;;4942047;29;20020;-90
2023/12/18 06:05:03;;;;;;;1.52;0.75;;;10.80;99.90;;;;;;4956342;29;20040;-90
2023/12/18 06:07:29;;;;;;;2.75;0.73;;;10.80;99.90;;;;;;4934597;29;20036;-90
2023/12/18 06:09:54;;;;;;;3.90;0.70;;;10.80;99.90;;;;;;4937351;29;20438;-89
2023/12/18 06:12:20;;;;;;;2.38;0.60;;;10.70;99.90;;;;;;4936842;29;20106;-89
2023/12/18 06:14:47;;;;;;;1.48;0.70;;;10.70;99.90;;;;;;4935733;29;20027;-89
2023/12/18 06:17:12;;;;;;;3.83;0.60;;;10.70;99.90;;;;;;4936505;29;20055;-89
2023/12/18 06:19:39;;;;;;;2.35;0.50;;;10.70;99.90;;;;;;4935794;29;20024;-89
2023/12/18 06:22:05;;;;;;;3.65;0.60;;;10.60;99.90;;;;;;4936265;29;20102;-89
2023/12/18 06:24:34;;;;;;;7.18;0.77;;;10.60;99.90;;;;;;4935777;29;20115;-90
2023/12/18 06:26:59;;;;;;;2.92;0.60;;;10.60;99.90;;;;;;4937942;29;20117;-90
2023/12/18 06:29:28;;;;;;;4.78;0.60;;;10.60;99.90;;;;;;4954770;29;20078;-91
2023/12/18 06:31:54;;;;;;;3.58;0.50;;;10.60;99.90;;;;;;4955050;29;20020;-90
2023/12/18 06:34:23;;;;;;;2.08;0.40;;;10.60;99.90;;;;;;4955466;29;20023;-90
2023/12/18 06:36:48;;;;;;;1.75;0.38;;;10.60;99.90;;;;;;4938100;29;20028;-90
2023/12/18 06:39:14;;;;;;;1.92;0.50;;;10.60;99.90;;;;;;4939309;29;20031;-90
2023/12/18 06:41:40;;;;;;;1.77;0.50;;;10.60;99.90;;;;;;4955928;29;20032;-91
2023/12/18 06:44:06;;;;;;;2.88;0.50;;;10.60;99.90;;;;;;4954207;29;20020;-90
2023/12/18 06:46:35;;;;;;;0.47;0.30;;;10.60;99.90;;;;;;4938016;29;20035;-90
2023/12/18 06:49:04;;;;;;;1.45;0.40;;;10.60;99.90;;;;;;4956863;29;20019;-90
2023/12/18 06:51:30;;;;;;;0.47;0.30;;;10.70;99.90;;;;;;4940665;29;20078;-90
2023/12/18 06:53:56;;;;;;;0.98;0.30;;;10.70;99.90;;;;;;4956648;29;20063;-90
2023/12/18 06:56:21;;;;;;;1.30;0.28;;;10.70;99.90;;;;;;4940369;29;20271;-88
2023/12/18 06:58:47;;;;;;;1.50;0.50;;;10.70;99.90;;;;;;4940553;29;20094;-90
2023/12/18 07:01:16;;;;;;;0.75;0.30;;;10.70;99.90;;;;;;4958996;28;20035;-91
2023/12/18 07:03:42;;;;;;;0.65;0.32;;;10.70;99.90;;;;;;4942724;29;20031;-90
2023/12/18 07:06:08;;;;;;;0.28;0.28;;;10.80;99.90;;;;;;4958200;29;20019;-89
2023/12/18 07:08:34;;;;;;;0.30;0.30;;;10.80;99.90;;;;;;4958096;29;20492;-90
2023/12/18 07:11:00;;;;;;;0.15;0.15;;;10.80;99.90;;;;;;4956458;29;20038;-90
2023/12/18 07:13:26;;;;;;;0.65;0.40;;;10.80;99.90;;;;;;4939246;29;20129;-90
2023/12/18 07:15:52;;;;;;;0.43;0.30;;;10.80;99.90;;;;;;4957203;29;20063;-89
2023/12/18 07:18:17;;;;;;;1.02;0.40;;;10.80;99.90;;;;;;4942172;29;20034;-90
2023/12/18 07:20:44;;;;;;;1.50;0.45;;;10.80;99.90;;;;;;4970637;29;20035;-89
2023/12/18 07:23:18;;;;;;;0.70;0.20;;;10.80;99.90;;;;;;4945328;29;20490;-91
2023/12/18 07:25:44;;;;;;;1.02;0.30;;;10.80;99.90;;;;;;4953542;29;20539;-91
2023/12/18 07:28:10;;;;;;;0.52;0.15;;;10.80;99.90;;;;;;4952025;28;20023;-92
2023/12/18 07:30:36;;;;;;;0.85;0.25;;;10.80;99.90;;;;;;4953735;29;20031;-91
2023/12/18 07:33:02;;;;;;;2.10;0.30;;;10.80;99.90;;;;;;4951228;29;20031;-89
2023/12/18 07:35:28;;;;;;;0.63;0.30;;;10.80;99.90;;;;;;4952929;28;20182;-90
2023/12/18 07:37:54;;;;;;;1.35;0.30;;;10.80;99.90;;;;;;4954596;29;20048;-90
2023/12/18 07:40:21;;;;;;;0.50;0.20;;;10.80;99.90;;;;;;4952203;28;20015;-91
2023/12/18 07:42:47;;;;;;;0.65;0.40;;;10.90;99.90;;;;;;4950170;29;20126;-89
2023/12/18 07:45:13;;;;;;;0.47;0.20;;;10.80;99.90;;;;;;4949877;29;20421;-90
2023/12/18 07:47:40;;;;;;;0.30;0.10;;;10.80;99.90;;;;;;4921899;29;20028;-91
2023/12/18 07:50:07;;;;;;;1.67;0.30;;;10.80;99.90;;;;;;4949370;29;20035;-90
2023/12/18 07:52:33;;;;;;;1.13;0.30;;;10.80;99.90;;;;;;4952747;28;20079;-91
2023/12/18 07:54:58;;;;;;;0.47;0.20;;;10.80;99.90;;;;;;4953361;29;20031;-91
2023/12/18 07:57:24;;;;;;;1.45;0.30;;;10.80;99.90;;;;;;4954348;29;20037;-93
2023/12/18 07:59:50;;;;;;;0.50;0.35;;;10.90;99.90;;;;;;4953655;29;20030;-92
2023/12/18 08:02:16;;;;;;;1.67;0.20;;;10.90;99.90;;;;;;4954702;29;20031;-91
2023/12/18 08:04:42;;;;;;;0.28;0.20;;;10.90;99.90;;;;;;4953056;29;20082;-92
2023/12/18 08:07:07;;;;;;;1.80;0.30;;;10.90;99.90;;;;;;4955581;29;20098;-90
2023/12/18 08:09:33;;;;;;;0.10;0.10;;;10.90;99.90;;;;;;4949418;29;20473;-92
2023/12/18 08:11:59;;;;;;;1.08;0.10;;;11.00;99.90;;;;;;4937341;29;20027;-92
2023/12/18 08:14:25;;;;;;;0.17;0.17;;;11.00;99.90;;;;;;4949993;29;20503;-92
2023/12/18 08:16:51;;;;;;;0.85;0.30;;;11.00;99.90;;;;;;4940347;29;20027;-91
2023/12/18 08:19:17;;;;;;;2.58;0.20;;;11.00;99.90;;;;;;4957760;29;20019;-92
2023/12/18 08:21:44;;;;;;;0.70;0.40;;;11.00;99.90;;;;;;4958010;28;20039;-91
2023/12/18 08:24:09;;;;;;;0.63;0.32;;;11.00;99.90;;;;;;4941391;29;20508;-91
2023/12/18 08:26:35;;;;;;;0.90;0.20;;;11.00;99.90;;;;;;4958053;29;20031;-92
2023/12/18 08:29:01;;;;;;;1.20;0.30;;;11.00;99.90;;;;;;4959468;29;20027;-92
2023/12/18 08:31:27;;;;;;;0.52;0.20;;;11.00;99.90;;;;;;4952322;29;20059;-92
2023/12/18 08:33:53;;;;;;;0.65;0.17;;;11.00;99.90;;;;;;4963657;29;20023;-92
2023/12/18 08:36:19;;;;;;;0.28;0.20;;;11.00;99.90;;;;;;4963068;29;20050;-90
2023/12/18 08:38:44;;;;;;;0.15;0.10;;;11.00;99.90;;;;;;4979705;29;20044;-91
2023/12/18 08:41:10;;;;;;;0.95;0.20;;;11.10;99.90;;;;;;4972412;29;20058;-92
2023/12/18 08:43:36;;;;;;;0.20;0.10;;;11.10;99.90;;;;;;4959185;29;20023;-92
2023/12/18 08:46:01;;;;;;;0.43;0.35;;;11.10;99.90;;;;;;4941586;29;20028;-91
2023/12/18 08:48:27;;;;;;;0.30;0.20;;;11.20;99.90;;;;;;4957935;29;20023;-93
2023/12/18 08:50:53;;;;;;;0.25;0.20;;;11.20;99.90;;;;;;4956609;28;20043;-94
2023/12/18 08:53:19;;;;;;;0.75;0.25;;;11.20;99.90;;;;;;4941468;29;20564;-92
2023/12/18 08:55:45;;;;;;;0.45;0.20;;;11.20;99.90;;;;;;4934979;29;20122;-92
2023/12/18 08:58:11;;;;;;;2.05;0.20;;;11.20;99.90;;;;;;4942057;29;20480;-93
2023/12/18 09:00:36;;;;;;;0.10;0.10;;;11.20;99.90;;;;;;4956611;28;20507;-92
2023/12/18 09:03:03;;;;;;;0.70;0.10;;;11.20;99.90;;;;;;4959889;29;20031;-92
2023/12/18 09:05:33;;;;;;;3.50;0.20;;;11.20;99.90;;;;;;4945538;29;20039;-92
2023/12/18 09:08:00;;;;;;;0.10;0.10;;;11.20;99.90;;;;;;4964619;29;20126;-92
2023/12/18 09:10:25;;;;;;;0.90;0.30;;;11.30;99.90;;;;;;4962876;29;20110;-92
2023/12/18 09:12:52;;;;;;;0.63;0.25;;;11.30;99.90;;;;;;4940242;29;20055;-91
2023/12/18 09:15:18;;;;;;;1.25;0.50;;;11.30;99.90;;;;;;4958062;29;20019;-91
2023/12/18 09:17:44;;;;;;;3.40;0.30;;;11.30;99.90;;;;;;4949771;29;20125;-89
2023/12/18 09:20:10;;;;;;;0.55;0.30;;;11.30;99.90;;;;;;4940405;29;20069;-93
2023/12/18 09:22:37;;;;;;;0.20;0.17;;;11.30;99.90;;;;;;4948470;29;20040;-92
2023/12/18 09:25:06;;;;;;;0.98;0.32;;;11.30;99.90;;;;;;4939591;29;20035;-93
2023/12/18 09:27:32;;;;;;;0.95;0.10;;;11.30;99.90;;;;;;4945814;29;20050;-93
2023/12/18 09:29:58;;;;;;;1.98;0.40;;;11.30;99.90;;;;;;4958361;29;20023;-90
2023/12/18 09:32:24;;;;;;;0.65;0.20;;;11.30;99.90;;;;;;4958062;29;20026;-93
2023/12/18 09:34:49;;;;;;;0.10;0.10;;;11.30;99.90;;;;;;4941308;29;20270;-91
2023/12/18 09:37:15;;;;;;;0.40;0.20;;;11.30;99.90;;;;;;4957956;29;20031;-91
2023/12/18 09:39:41;;;;;;;0.65;0.20;;;11.30;99.90;;;;;;4941183;29;20019;-90
2023/12/18 09:42:10;;;;;;;0.35;0.22;;;11.30;99.90;;;;;;4939173;29;20523;-90
2023/12/18 09:44:36;;;;;;;0.20;0.20;;;11.30;99.90;;;;;;4939453;29;20027;-91
2023/12/18 09:47:02;;;;;;;0.17;0.10;;;11.30;99.90;;;;;;4939835;29;20031;-89
2023/12/18 09:49:28;;;;;;;0.22;0.20;;;11.40;99.90;;;;;;4954145;29;20071;-93
2023/12/18 09:52:06;;;;;;;0.50;0.20;;;11.40;99.90;;;;;;4956289;28;20047;-91
2023/12/18 09:54:33;;;;;;;0.35;0.20;;;11.40;99.90;;;;;;4951249;28;20074;-94
2023/12/18 09:57:02;;;;;;;0.75;0.10;;;11.40;99.90;;;;;;4955586;29;20041;-90
2023/12/18 09:59:28;;;;;;;0.45;0.17;;;11.40;99.90;;;;;;4954630;29;20042;-91
2023/12/18 10:01:55;;;;;;;0.13;0.13;;;11.40;99.90;;;;;;4948394;29;20035;-93
2023/12/18 10:04:21;;;;;;;0.55;0.20;;;11.50;99.90;;;;;;4949849;29;20465;-92
2023/12/18 10:06:48;;;;;;;1.90;0.30;;;11.50;99.90;;;;;;4948688;29;20042;-94
2023/12/18 10:09:15;;;;;;;2.13;0.20;;;11.50;99.90;;;;;;4956599;29;20046;-94
2023/12/18 10:11:47;;;;;;;1.17;0.30;;;11.50;99.90;;;;;;4945151;29;20042;-94
2023/12/18 10:14:13;;;;;;;0.10;0.10;;;11.50;99.90;;;;;;4954802;29;20067;-92
2023/12/18 10:16:39;;;;;;;0.98;0.30;;;11.50;99.90;;;;;;4954018;29;20493;-92
2023/12/18 10:19:06;;;;;;;0.77;0.20;;;11.50;99.90;;;;;;4944315;29;20047;-93
2023/12/18 10:21:32;;;;;;;0.55;0.20;;;11.50;99.90;;;;;;4945826;29;20058;-93
2023/12/18 10:23:58;;;;;;;0.28;0.10;;;11.50;99.90;;;;;;4940560;29;20060;-93
2023/12/18 10:26:24;;;;;;;0.30;0.05;;;11.50;99.90;;;;;;4941579;28;20027;-91
2023/12/18 10:28:53;;;;;;;1.75;0.40;;;11.50;99.90;;;;;;4954060;29;20114;-92
2023/12/18 10:31:19;;;;;;;0.13;0.13;;;11.60;99.90;;;;;;4951110;28;20023;-93
2023/12/18 10:33:45;;;;;;;2.38;0.20;;;11.60;99.90;;;;;;4945947;29;20031;-92
2023/12/18 10:36:35;;;;;;;0.20;0.17;;;11.60;99.90;;;;;;4952170;28;20020;-93
2023/12/18 10:39:05;;;;;;;0.30;0.30;;;11.60;99.90;;;;;;4965155;29;20027;-91
2023/12/18 10:41:35;;;;;;;0.10;0.10;;;11.60;99.90;;;;;;4958496;29;20035;-92
2023/12/18 10:44:02;;;;;;;0.30;0.20;;;11.60;99.90;;;;;;4952096;29;20093;-91
2023/12/18 10:46:28;;;;;;;0.85;0.30;;;11.60;99.90;;;;;;4947368;29;20035;-91
2023/12/18 10:48:56;;;;;;;1.10;0.30;;;11.70;99.90;;;;;;4946117;29;20029;-90
2023/12/18 10:51:23;;;;;;;0.88;0.13;;;11.70;99.90;;;;;;4963072;29;20527;-91
2023/12/18 10:53:51;;;;;;;0.30;0.20;;;11.70;99.90;;;;;;4955841;29;20039;-91
2023/12/18 10:56:21;;;;;;;0.32;0.30;;;11.70;99.90;;;;;;4942140;29;20111;-92
2023/12/18 11:01:41;;;;;;;1.80;0.50;;;11.80;99.90;;;;;;5035729;23;20100;-75
2023/12/18 11:04:07;;;;;;;0.55;0.35;;;11.80;99.90;;;;;;5027782;28;20068;-77
2023/12/18 11:06:34;;;;;;;4.70;2.28;;;11.80;99.90;;;;;;5029087;28;20053;-78
2023/12/18 11:09:00;;;;;;;4.53;1.05;;;11.80;99.90;;;;;;5010971;28;20150;-77
2023/12/18 11:11:26;;;;;;;0.63;0.50;;;11.80;99.90;;;;;;5029313;28;20033;-78
2023/12/18 11:14:19;;;;;;;4.75;1.98;;;11.80;99.90;;;;;;5028658;28;20025;-78
2023/12/18 11:16:53;;;;;;;5.03;2.00;;;11.80;99.90;;;;;;5028911;28;20037;-81
2023/12/18 11:19:51;;;;;;;2.20;0.85;;;11.80;99.90;;;;;;5011060;28;20017;-77
2023/12/18 11:22:23;;;;;;;2.50;0.95;;;11.90;99.90;;;;;;5021029;28;20570;-79
2023/12/18 11:24:48;;;;;;;2.42;1.17;;;11.80;99.90;;;;;;5028504;28;20067;-77
2023/12/18 11:27:16;;;;;;;2.33;1.02;;;11.80;99.90;;;;;;5010091;28;20037;-78
2023/12/18 11:29:49;;;;;;;1.55;0.80;;;11.90;99.90;;;;;;5027811;28;20022;-80
2023/12/18 11:32:44;;;;;;;1.75;0.95;;;11.80;99.90;;;;;;5029588;28;20079;-77
2023/12/18 11:35:14;;;;;;;1.60;0.80;;;11.90;99.90;;;;;;5010540;28;20022;-78
2023/12/18 11:38:08;;;;;;;1.83;0.90;;;11.90;99.90;;;;;;5028443;28;20040;-79
2023/12/18 11:40:40;;;;;;;1.15;1.00;;;11.90;99.90;;;;;;5014724;28;20037;-77
2023/12/18 11:43:11;;;;;;;1.70;0.63;;;11.90;99.90;;;;;;5028010;28;20117;-80
2023/12/18 11:45:42;;;;;;;5.97;1.00;;;12.00;99.90;;;;;;5027651;28;20025;-79
2023/12/18 11:48:09;;;;;;;;;;;12.00;99.90;;;;;;5012844;28;20033;-79
2023/12/18 11:50:38;;;;;;;0.95;0.63;;;12.00;99.90;;;;;;5030019;28;19917;-78
2023/12/18 11:53:23;;;;;;;2.00;0.98;;;12.00;99.90;;;;;;5030279;28;20109;-80
2023/12/18 11:55:52;;;;;;;3.25;0.90;;;12.10;99.90;;;;;;5031788;28;20120;-79
2023/12/18 11:58:24;;;;;;;2.92;0.60;;;12.10;99.90;;;;;;5029799;28;20026;-80
2023/12/18 12:00:51;;;;;;;1.23;0.65;;;12.10;99.90;;;;;;5029424;28;20334;-78
2023/12/18 12:03:17;;;;;;;1.35;0.73;;;12.10;99.90;;;;;;5014237;28;20436;-78
2023/12/18 12:05:45;;;;;;;3.33;0.68;;;12.20;99.90;;;;;;5031590;28;20428;-80
2023/12/18 12:08:12;;;;;;;1.75;0.73;;;12.20;99.90;;;;;;5031632;28;20029;-78
2023/12/18 12:10:47;;;;;;;1.08;0.47;;;12.20;99.90;;;;;;5032011;28;20504;-77
2023/12/18 12:13:23;;;;;;;1.30;0.75;;;12.20;99.90;;;;;;5014397;28;20109;-76
2023/12/18 12:15:54;;;;;;;2.05;0.70;;;12.30;99.90;;;;;;5030024;28;20052;-76
2023/12/18 12:18:20;;;;;;;1.58;0.75;;;12.30;99.90;;;;;;5031934;28;20022;-81
2023/12/18 12:20:45;;;;;;;1.80;1.00;;;12.30;99.90;;;;;;5029294;28;20032;-80
2023/12/18 12:23:11;;;;;;;0.65;0.45;;;12.30;99.90;;;;;;5032969;28;20507;-77
2023/12/18 12:25:38;;;;;;;1.30;0.60;;;12.30;99.90;;;;;;5032786;28;20393;-77
2023/12/18 12:28:03;;;;;;;1.92;0.70;;;12.30;99.90;;;;;;5032509;28;20025;-79
2023/12/18 12:30:29;;;;;;;0.75;0.40;;;12.30;99.90;;;;;;5033369;28;20036;-78
2023/12/18 12:32:55;;;;;;;0.50;0.40;;;12.30;99.90;;;;;;5027919;28;20030;-79
2023/12/18 12:35:21;;;;;;;0.20;0.20;;;12.30;99.90;;;;;;5029862;28;20115;-77
2023/12/18 12:37:47;;;;;;;0.50;0.50;;;12.30;99.90;;;;;;5032558;28;20484;-77
2023/12/18 12:40:13;;;;;;;0.63;0.40;;;12.40;99.90;;;;;;5033413;28;20029;-80
2023/12/18 12:42:40;;;;;;;0.63;0.40;;;12.40;99.90;;;;;;5015420;28;20152;-77
2023/12/18 12:45:08;;;;;;;1.08;0.73;;;12.40;99.90;;;;;;5015328;28;20029;-78
2023/12/18 12:47:34;;;;;;;1.05;0.95;;;12.40;99.90;;;;;;5032287;28;20112;-77